^^
Station Historical Data
Daily Summary for April 11, 2017 Units:  English    Metric   Both
« Previous Day
Next Day »
Daily Weekly Monthly Yearly Custom
  High: Low: Average:
Temperature: 82.0 °F 59.1 °F 68.6 °F
Dew Point: 55.4 °F 46.8 °F 51.1 °F
Humidity: 77% 36% 55%
Wind Speed: 6.0mph 0.0mph 1.8mph
Wind Gust: 15.0mph - -
Wind- - SSW
Pressure: 30.16 in 30.05 in -
Precipitation: 0.00 in    
Historical Graphs
 
 
Tabular Data for April 11, 2017
Time Temperature Dew Point Pressure Wind Wind Speed Wind Gust Humidity Rainfall Rate (Hourly) Conditions
00:00 67.0 °F 47.2 °F 30.14 in SSW 6.0 mph 12.0 mph 49% 0.00 in CLR
00:15 66.6 °F 46.8 °F 30.14 in South 5.0 mph 12.0 mph 49% 0.00 in CLR
00:30 66.0 °F 47.3 °F 30.13 in SSW 3.0 mph 12.0 mph 51% 0.00 in CLR
01:00 65.4 °F 46.8 °F 30.13 in South 5.0 mph 12.0 mph 51% 0.00 in CLR
02:15 63.5 °F 47.0 °F 30.12 in South 2.0 mph 9.0 mph 55% 0.00 in CLR
02:30 63.2 °F 47.2 °F 30.12 in South 2.0 mph 8.0 mph 56% 0.00 in CLR
02:45 62.6 °F 47.2 °F 30.11 in South 2.0 mph 9.0 mph 57% 0.00 in CLR
03:00 62.5 °F 47.5 °F 30.11 in SSW 5.0 mph 8.0 mph 58% 0.00 in CLR
03:15 62.2 °F 47.2 °F 30.11 in South 3.0 mph 9.0 mph 58% 0.00 in CLR
03:30 61.8 °F 47.3 °F 30.11 in South 3.0 mph 8.0 mph 59% 0.00 in CLR
03:45 61.5 °F 47.5 °F 30.11 in SSW 2.0 mph 7.0 mph 60% 0.00 in CLR
04:00 61.5 °F 47.4 °F 30.10 in SSW 3.0 mph 9.0 mph 60% 0.00 in CLR
04:15 61.2 °F 47.6 °F 30.10 in SSW 3.0 mph 9.0 mph 61% 0.00 in CLR
04:30 61.5 °F 47.5 °F 30.10 in SW 3.0 mph 10.0 mph 60% 0.00 in CLR
04:45 61.2 °F 47.7 °F 30.10 in SW 2.0 mph 9.0 mph 61% 0.00 in CLR
05:00 61.1 °F 47.5 °F 30.11 in SSW 3.0 mph 9.0 mph 61% 0.00 in CLR
05:15 60.9 °F 47.4 °F 30.11 in SSW 3.0 mph 7.0 mph 61% 0.00 in CLR
05:30 60.5 °F 47.4 °F 30.12 in SW 2.0 mph 8.0 mph 62% 0.00 in CLR
05:45 60.1 °F 47.5 °F 30.12 in SW 5.0 mph 7.0 mph 63% 0.00 in CLR
06:00 60.0 °F 47.8 °F 30.12 in SSW 2.0 mph 8.0 mph 64% 0.00 in CLR
06:15 59.9 °F 47.3 °F 30.12 in Calm   6.0 mph 63% 0.00 in CLR
06:30 59.4 °F 47.6 °F 30.12 in Calm   6.0 mph 65% 0.00 in CLR
06:45 59.2 °F 47.4 °F 30.13 in Calm   5.0 mph 65% 0.00 in CLR
07:00 59.5 °F 47.7 °F 30.14 in SE 1.0 mph 3.0 mph 65% 0.00 in CLR
07:15 59.5 °F 47.7 °F 30.13 in South 1.0 mph 5.0 mph 65% 0.00 in CLR
07:30 59.1 °F 47.8 °F 30.14 in SW 1.0 mph 5.0 mph 66% 0.00 in CLR
07:45 59.9 °F 48.1 °F 30.15 in SW 3.0 mph 6.0 mph 65% 0.00 in CLR
08:00 60.6 °F 47.9 °F 30.15 in SSW 1.0 mph 7.0 mph 63% 0.00 in CLR
08:15 61.6 °F 48.0 °F 30.14 in South 1.0 mph 8.0 mph 61% 0.00 in CLR
08:30 62.9 °F 48.3 °F 30.14 in SW 5.0 mph 9.0 mph 59% 0.00 in CLR
08:45 64.0 °F 48.9 °F 30.14 in WSW 1.0 mph 10.0 mph 58% 0.00 in CLR
09:00 64.5 °F 49.0 °F 30.15 in SSW 2.0 mph 9.0 mph 57% 0.00 in CLR
09:15 64.9 °F 48.8 °F 30.16 in South 2.0 mph 8.0 mph 56% 0.00 in CLR
09:30 66.2 °F 49.5 °F 30.16 in SW 1.0 mph 5.0 mph 55% 0.00 in CLR
09:45 67.5 °F 49.8 °F 30.16 in SW 1.0 mph 6.0 mph 53% 0.00 in CLR
10:00 67.6 °F 49.3 °F 30.15 in SW 1.0 mph 6.0 mph 52% 0.00 in CLR
10:15 69.1 °F 49.7 °F 30.15 in Calm   6.0 mph 50% 0.00 in CLR
10:30 71.0 °F 50.4 °F 30.15 in South 1.0 mph 4.0 mph 48% 0.00 in CLR
10:45 72.7 °F 51.3 °F 30.15 in SSW 2.0 mph 6.0 mph 47% 0.00 in CLR
11:00 73.4 °F 50.8 °F 30.14 in South 1.0 mph 5.0 mph 45% 0.00 in CLR
11:15 74.8 °F 51.4 °F 30.14 in SSW 3.0 mph 6.0 mph 44% 0.00 in CLR
11:30 75.3 °F 51.3 °F 30.14 in West 1.0 mph 6.0 mph 43% 0.00 in CLR
11:45 75.8 °F 52.3 °F 30.13 in SSW 2.0 mph 6.0 mph 44% 0.00 in CLR
12:00 76.7 °F 51.8 °F 30.13 in SW 1.0 mph 6.0 mph 42% 0.00 in CLR
12:15 77.9 °F 53.0 °F 30.12 in SW 1.0 mph 6.0 mph 42% 0.00 in CLR
12:30 78.1 °F 52.5 °F 30.12 in SW 3.0 mph 8.0 mph 41% 0.00 in CLR
12:45 79.8 °F 51.9 °F 30.11 in SW 3.0 mph 6.0 mph 38% 0.00 in CLR
13:00 80.3 °F 52.4 °F 30.11 in SW 2.0 mph 6.0 mph 38% 0.00 in CLR
13:15 81.4 °F 51.9 °F 30.10 in SW 3.0 mph 9.0 mph 36% 0.00 in CLR
13:30 82.0 °F 53.2 °F 30.09 in SW 3.0 mph 9.0 mph 37% 0.00 in CLR
13:45 81.9 °F 54.5 °F 30.09 in SSW 3.0 mph 9.0 mph 39% 0.00 in CLR
14:00 81.9 °F 54.5 °F 30.09 in SSW 2.0 mph 8.0 mph 39% 0.00 in CLR
14:15 81.8 °F 53.7 °F 30.09 in SE 3.0 mph 8.0 mph 38% 0.00 in CLR
14:30 81.2 °F 54.6 °F 30.08 in SSW 2.0 mph 12.0 mph 40% 0.00 in CLR
14:45 80.7 °F 54.1 °F 30.08 in South 3.0 mph 14.0 mph 40% 0.00 in CLR
15:00 80.6 °F 54.1 °F 30.08 in SW 3.0 mph 9.0 mph 40% 0.00 in CLR
15:15 80.2 °F 53.7 °F 30.08 in South 2.0 mph 15.0 mph 40% 0.00 in CLR
15:30 81.0 °F 54.4 °F 30.08 in SSW 2.0 mph 12.0 mph 40% 0.00 in CLR
15:45 80.3 °F 53.8 °F 30.08 in SW 2.0 mph 12.0 mph 40% 0.00 in CLR
16:00 79.0 °F 53.3 °F 30.07 in South 5.0 mph 10.0 mph 41% 0.00 in CLR
16:15 78.9 °F 54.5 °F 30.07 in South 1.0 mph 9.0 mph 43% 0.00 in CLR
16:30 78.3 °F 54.0 °F 30.07 in SW 5.0 mph 12.0 mph 43% 0.00 in CLR
16:45 78.5 °F 55.4 °F 30.07 in SSW 1.0 mph 10.0 mph 45% 0.00 in CLR
17:00 78.9 °F 55.1 °F 30.07 in SSE 3.0 mph 12.0 mph 44% 0.00 in CLR
17:15 79.0 °F 55.2 °F 30.07 in SSW 1.0 mph 8.0 mph 44% 0.00 in CLR
17:30 76.6 °F 55.4 °F 30.07 in South 1.0 mph 8.0 mph 48% 0.00 in CLR
17:45 75.7 °F 55.2 °F 30.07 in SSW 2.0 mph 12.0 mph 49% 0.00 in CLR
18:00 75.2 °F 55.3 °F 30.07 in South 2.0 mph 7.0 mph 50% 0.00 in CLR
18:15 74.4 °F 55.1 °F 30.07 in SE 2.0 mph 8.0 mph 51% 0.00 in CLR
18:30 72.8 °F 54.6 °F 30.06 in SSE 3.0 mph 8.0 mph 53% 0.00 in CLR
18:45 71.8 °F 54.8 °F 30.06 in South 1.0 mph 8.0 mph 55% 0.00 in CLR
19:00 70.9 °F 54.4 °F 30.06 in Calm   7.0 mph 56% 0.00 in CLR
19:15 69.4 °F 54.0 °F 30.06 in SSE 2.0 mph 9.0 mph 58% 0.00 in CLR
19:30 68.3 °F 53.9 °F 30.05 in SSE 1.0 mph 6.0 mph 60% 0.00 in CLR
19:45 67.4 °F 54.0 °F 30.06 in Calm   5.0 mph 62% 0.00 in CLR
20:00 66.9 °F 53.9 °F 30.06 in NNW 1.0 mph 4.0 mph 63% 0.00 in CLR
20:15 66.7 °F 53.7 °F 30.07 in Calm   4.0 mph 63% 0.00 in CLR
20:30 66.0 °F 53.4 °F 30.07 in East 1.0 mph 5.0 mph 64% 0.00 in CLR
20:45 65.6 °F 53.5 °F 30.08 in Calm   2.0 mph 65% 0.00 in CLR
21:00 65.1 °F 53.5 °F 30.08 in Calm   1.0 mph 66% 0.00 in CLR
21:15 64.4 °F 53.2 °F 30.08 in Calm   1.0 mph 67% 0.00 in CLR
21:30 63.6 °F 53.2 °F 30.09 in Calm   2.0 mph 69% 0.00 in CLR
21:45 63.0 °F 53.1 °F 30.09 in Calm   1.0 mph 70% 0.00 in CLR
22:00 62.2 °F 52.7 °F 30.09 in Calm   1.0 mph 71% 0.00 in CLR
22:15 61.3 °F 52.6 °F 30.09 in Calm   1.0 mph 73% 0.00 in CLR
22:30 60.8 °F 52.5 °F 30.11 in Calm   3.0 mph 74% 0.00 in CLR
22:45 60.3 °F 52.4 °F 30.10 in Calm   3.0 mph 75% 0.00 in CLR
23:00 59.9 °F 52.7 °F 30.10 in Calm   4.0 mph 77% 0.00 in CLR
23:15 60.3 °F 52.3 °F 30.10 in Calm   3.0 mph 75% 0.00 in CLR
23:30 59.7 °F 52.5 °F 30.10 in Calm   1.0 mph 77% 0.00 in CLR
23:45 59.9 °F 52.6 °F 30.10 in NE 1.0 mph 2.0 mph 77% 0.00 in CLR
TarryTown NY Weather
Compliments of Weather Underground - 1.5 mb